EW3427 Weather Reports


time (UTC)temp
C
wind
direction
speed
KPH
gust
KPH
rain 1hr
cm
rain 24hr
cm
rain mn
cm
humidity
%
barometer
mb
20260906154004 22 103 6.4 11.3 0.00 0.00 0.00 81 1021.0
20260906153004 22 95 8.0 12.9 0.00 0.00 0.00 81 1021.1
20260906152004 22 95 6.4 14.5 0.00 0.00 0.00 82 1021.0
20260906151016 21 91 6.4 12.9 0.00 0.00 0.00 87 1021.1
20260906150054 21 103 6.4 9.7 0.00 0.00 0.00 88 1021.1
20260906145005 21 85 4.8 8.0 0.00 0.00 0.00 89 1020.7
20260906144002 21 97 6.4 12.9 0.00 0.00 0.00 90 1020.9
20260906143002 21 87 6.4 12.9 0.00 0.00 0.00 90 1020.9
20260906142004 20 85 4.8 11.3 0.00 0.00 0.00 91 1021.0
20260906141037 20 76 4.8 9.7 0.00 0.00 0.00 95 1021.0
20260906140014 19 88 4.8 8.0 0.00 0.00 0.00 96 1021.2
20260906135005 18 86 3.2 6.4 0.00 0.00 0.00 96 1021.2
20260906134022 18 88 6.4 8.0 0.00 0.00 0.00 96 1021.2
20260906133003 18 78 4.8 8.0 0.00 0.00 0.00 96 1021.1
20260906132023 18 72 4.8 8.0 0.00 0.00 0.00 96 1020.9
20260906131018 17 79 3.2 4.8 0.00 0.00 0.00 96 1020.8
20260906130016 17 71 3.2 4.8 0.00 0.00 0.00 96 1020.7
20260906125007 17 64 3.2 4.8 0.00 0.00 0.00 96 1020.8
20260906124004 17 67 3.2 6.4 0.00 0.00 0.00 96 1020.7
20260906123024 16 39 3.2 6.4 0.00 0.00 0.00 96 1020.7
20260906122006 16 36 1.6 3.2 0.00 0.00 0.00 96 1020.7
20260906121016 15 52 1.6 3.2 0.00 0.00 0.00 96 1020.5
20260906120016 15 35 1.6 4.8 0.00 0.00 0.00 96 1020.5
20260906115004 15 350 1.6 3.2 0.00 0.00 0.00 96 1020.3
20260906114005 15 78 3.2 3.2 0.00 0.00 0.00 96 1020.1
20260906113005 15 48 0.0 3.2 0.00 0.00 0.00 96 1020.0
20260906112005 15 41 0.0 1.6 0.00 0.00 0.00 96 1019.8
20260906111036 15 0.0 0.0 0.00 0.00 0.00 96 1019.7
20260906110014 15 48 1.6 3.2 0.00 0.00 0.00 96 1019.7
20260906105005 15 46 1.6 3.2 0.00 0.00 0.00 96 1019.7
20260906104002 15 79 0.0 3.2 0.00 0.00 0.00 96 1019.7
20260906103002 15 52 0.0 3.2 0.00 0.00 0.00 96 1019.7
20260906102023 15 33 0.0 3.2 0.00 0.00 0.00 96 1019.7
20260906101018 15 0.0 0.0 0.00 0.00 0.00 96 1019.7
20260906100015 15 42 1.6 3.2 0.00 0.00 0.00 96 1019.8
20260906095027 15 23 0.0 1.6 0.00 0.00 0.00 96 1019.7
20260906094003 15 74 0.0 3.2 0.00 0.00 0.00 96 1019.7
20260906093003 15 72 3.2 3.2 0.00 0.00 0.00 96 1019.7
20260906092004 15 38 1.6 3.2 0.00 0.00 0.00 96 1019.6
20260906091016 15 74 3.2 3.2 0.00 0.00 0.00 96 1019.5
20260906090013 15 78 3.2 4.8 0.00 0.00 0.00 96 1019.5
20260906085024 15 79 3.2 4.8 0.00 0.00 0.00 96 1019.7
20260906084004 15 75 3.2 3.2 0.00 0.00 0.00 96 1019.6
20260906083004 15 80 3.2 4.8 0.00 0.00 0.00 96 1019.6
20260906082005 15 77 3.2 4.8 0.00 0.00 0.00 96 1019.6
20260906081005 15 73 3.2 3.2 0.00 0.00 0.00 96 1019.5
20260906080014 15 85 1.6 3.2 0.00 0.00 0.00 96 1019.5
20260906075025 15 0.0 0.0 0.00 0.00 0.00 96 1019.7
20260906074023 15 84 3.2 4.8 0.00 0.00 0.00 96 1019.7
20260906073045 15 85 1.6 3.2 0.00 0.00 0.00 96 1019.6
20260906072023 15 82 3.2 4.8 0.00 0.00 0.00 96 1019.6
20260906071003 15 85 1.6 3.2 0.00 0.00 0.00 96 1019.6
20260906070015 15 327 1.6 3.2 0.00 0.00 0.00 96 1019.5
20260906065006 15 82 1.6 3.2 0.00 0.00 0.00 96 1019.4
20260906064003 15 46 1.6 3.2 0.00 0.00 0.00 96 1019.3
20260906063044 15 47 1.6 3.2 0.00 0.00 0.00 96 1019.3
20260906062023 16 132 0.0 3.2 0.00 0.00 0.00 96 1019.2
20260906061025 16 84 3.2 4.8 0.00 0.00 0.00 96 1019.1
20260906060016 16 76 3.2 4.8 0.00 0.00 0.00 96 1019.1
20260906055007 16 78 4.8 4.8 0.00 0.00 0.00 96 1019.2
20260906054024 15 92 3.2 3.2 0.00 0.00 0.00 96 1019.2
20260906053004 16 92 1.6 3.2 0.00 0.00 0.00 96 1019.3
20260906052004 16 0.0 0.0 0.00 0.00 0.00 96 1019.2
20260906051044 16 62 1.6 3.2 0.00 0.00 0.00 96 1019.0
20260906050015 16 79 3.2 4.8 0.00 0.00 0.00 96 1018.8
20260906045005 16 66 1.6 3.2 0.00 0.00 0.00 96 1018.7
20260906044004 17 84 1.6 3.2 0.00 0.00 0.00 95 1018.6
20260906043006 17 74 3.2 4.8 0.00 0.00 0.00 94 1018.4
20260906042025 17 76 4.8 6.4 0.00 0.00 0.00 94 1018.5
20260906041003 18 77 6.4 6.4 0.00 0.00 0.00 93 1018.5
20260906040018 18 74 3.2 4.8 0.00 0.00 0.00 90 1018.6
20260906035009 18 79 4.8 6.4 0.00 0.00 0.00 88 1018.4
20260906034006 19 92 4.8 4.8 0.00 0.00 0.00 84 1018.4
20260906033026 20 84 3.2 4.8 0.00 0.00 0.00 83 1018.4
20260906032006 20 97 4.8 11.3 0.00 0.00 0.00 82 1018.2
20260906031026 20 93 4.8 9.7 0.00 0.00 0.00 83 1018.1
20260906030040 20 97 4.8 8.0 0.00 0.00 0.00 85 1018.1
20260906025010 20 89 6.4 9.7 0.00 0.00 0.00 89 1018.0
20260906024008 20 90 6.4 9.7 0.00 0.00 0.00 90 1018.0
20260906023007 20 90 4.8 8.0 0.00 0.00 0.00 90 1018.0
20260906022007 20 87 4.8 6.4 0.00 0.00 0.00 92 1018.0
20260906021007 20 85 4.8 6.4 0.00 0.00 0.00 96 1018.0
20260906020017 20 91 3.2 9.7 0.00 0.00 0.00 96 1017.9
20260906015027 20 84 3.2 3.2 0.00 0.00 0.00 96 1017.8
20260906014009 20 93 1.6 3.2 0.00 0.00 0.00 96 1017.7
20260906013005 20 86 1.6 3.2 0.00 0.00 0.00 95 1017.6
20260906012009 21 95 1.6 3.2 0.00 0.00 0.00 94 1017.6
20260906011045 21 0.0 0.0 0.00 0.00 0.00 92 1017.6
20260906010017 21 91 3.2 4.8 0.00 0.00 0.00 91 1017.4
20260906005008 22 81 3.2 4.8 0.00 0.00 0.00 90 1017.5
20260906004025 22 88 4.8 4.8 0.00 0.00 0.00 88 1016.8
20260906003006 22 84 4.8 8.0 0.00 0.00 0.00 87 1017.5
20260906002007 22 93 4.8 8.0 0.00 0.00 0.00 86 1017.4
20260906001006 23 85 4.8 12.9 0.00 0.00 0.00 85 1017.4
20260906000018 23 86 3.2 9.7 0.00 0.00 0.00 85 1017.6
20260905235010 23 30 1.6 6.4 0.00 0.00 0.00 84 1017.7
20260905234007 24 326 1.6 6.4 0.00 0.00 0.00 81 1017.7
20260905233007 24 3 4.8 9.7 0.00 0.00 0.00 78 1017.6
20260905232006 25 3 3.2 9.7 0.00 0.00 0.00 79 1017.6
20260905231027 25 358 3.2 8.0 0.00 0.00 0.00 76 1017.6
20260905230016 25 29 1.6 8.0 0.00 0.00 0.00 77 1017.6
20260905225047 24 2 4.8 9.7 0.00 0.00 0.00 78 1017.5
20260905224008 24 31 1.6 8.0 0.00 0.00 0.00 79 1017.3
20260905223007 24 88 3.2 8.0 0.00 0.00 0.00 78 1017.4
20260905222004 25 49 3.2 8.0 0.00 0.00 0.00 77 1017.3
20260905221005 25 5 4.8 12.9 0.00 0.00 0.00 76 1017.2
20260905220017 25 60 3.2 9.7 0.00 0.00 0.00 77 1017.1
20260905215008 25 70 1.6 4.8 0.00 0.00 0.00 79 1017.2
20260905214006 24 5 3.2 9.7 0.00 0.00 0.00 80 1017.2
20260905213005 24 16 1.6 8.0 0.00 0.00 0.00 81 1017.3
20260905212006 24 7 4.8 11.3 0.00 0.00 0.00 81 1017.4
20260905211006 25 12 4.8 12.9 0.00 0.00 0.00 80 1017.4
20260905210018 25 356 4.8 14.5 0.00 0.00 0.00 79 1017.3
20260905205009 25 2 4.8 11.3 0.00 0.00 0.00 80 1017.4
20260905204006 24 4 4.8 11.3 0.00 0.00 0.00 83 1017.4
20260905203006 23 8 4.8 12.9 0.00 0.00 0.00 82 1017.5
20260905202007 23 2 3.2 12.9 0.00 0.00 0.00 84 1017.7
20260905201127 23 16 4.8 9.7 0.00 0.00 0.00 85 1017.6
20260905200027 23 359 4.8 11.3 0.00 0.00 0.00 86 1017.6
20260905195007 23 4 4.8 11.3 0.00 0.00 0.00 87 1017.6
20260905194007 22 9 3.2 6.4 0.00 0.00 0.00 88 1017.6
20260905193009 22 20 3.2 12.9 0.00 0.00 0.00 88 1017.6
20260905192007 23 12 6.4 11.3 0.00 0.00 0.00 87 1017.6
20260905191008 23 17 1.6 6.4 0.00 0.00 0.00 88 1017.6
20260905190008 22 13 3.2 11.3 0.00 0.00 0.00 88 1017.7
20260905185018 22 11 4.8 8.0 0.00 0.00 0.00 88 1017.7
20260905184018 22 346 3.2 9.7 0.00 0.00 0.00 88 1017.7
20260905183017 23 7 3.2 11.3 0.00 0.00 0.00 87 1017.7
20260905182018 23 356 3.2 8.0 0.00 0.00 0.00 87 1017.7
20260905181018 23 2 3.2 8.0 0.00 0.00 0.00 85 1017.8
20260905180018 23 18 3.2 6.4 0.00 0.00 0.00 86 1017.9
20260905175008 23 25 3.2 11.3 0.00 0.00 0.00 87 1017.8
20260905174007 23 30 3.2 8.0 0.00 0.00 0.00 87 1017.8
20260905173007 23 20 4.8 14.5 0.00 0.00 0.00 86 1017.7
20260905172006 23 24 3.2 11.3 0.00 0.00 0.00 86 1017.6
20260905171007 23 26 3.2 9.7 0.00 0.00 0.00 86 1017.5
20260905170027 23 13 4.8 11.3 0.00 0.00 0.00 85 1017.5
20260905165016 23 11 4.8 14.5 0.00 0.00 0.00 85 1017.6
20260905164016 23 22 3.2 11.3 0.00 0.00 0.00 86 1017.7
20260905163016 23 56 3.2 6.4 0.00 0.00 0.00 88 1017.7
20260905162016 23 65 3.2 6.4 0.00 0.00 0.00 88 1017.6
20260905161036 23 16 4.8 9.7 0.00 0.00 0.00 88 1017.6
20260905160028 22 62 3.2 4.8 0.00 0.00 0.00 89 1017.8
20260905155109 22 68 3.2 4.8 0.00 0.00 0.00 91 1017.7